Time;durP1;ratioP1;P1;durP2;ratioP2;P2;SDS_P1;SDS_P2;PMS_P1;PMS_P2;Temp;Humidity;BMP_temperature;BMP_pressure;BME280_temperature;BME280_humidity;BME280_pressure;Samples;Min_cycle;Max_cycle;Signal;HPM_P1;HPM_P2
2023/03/28 00:08:51;;;;;;;19.8;12;;;;;;;-1.6;77.4;98410;;;;
2023/03/28 00:18:51;;;;;;;19.8;12;;;;;;;-1.7;77.6;98400;;;;
2023/03/28 00:29:51;;;;;;;31;17;;;;;;;-1.8;78.3;98400;;;;
2023/03/28 00:40:54;;;;;;;31;17;;;;;;;-1.8;77.6;98410;;;;
2023/03/28 00:51:51;;;;;;;31;17;;;;;;;-1.7;77.2;98420;;;;
2023/03/28 01:01:51;;;;;;;33.4;20.8;;;;;;;-1.8;77.5;98430;;;;
2023/03/28 01:12:51;;;;;;;33.4;20.8;;;;;;;-1.8;77.4;98420;;;;
2023/03/28 01:23:51;;;;;;;33.4;20.8;;;;;;;-1.9;77.7;98410;;;;
2023/03/28 01:33:51;;;;;;;31.2;19.2;;;;;;;-2;78.1;98420;;;;
2023/03/28 01:43:51;;;;;;;31.2;19.2;;;;;;;-2.1;78.3;98410;;;;
2023/03/28 01:54:51;;;;;;;29.2;18.8;;;;;;;-2.2;78.3;98430;;;;
2023/03/28 02:04:51;;;;;;;29.2;18.8;;;;;;;-2.3;78.5;98420;;;;
2023/03/28 02:14:52;;;;;;;29.2;18.8;;;;;;;-2.4;78.5;98420;;;;
2023/03/28 02:25:52;;;;;;;26;17.3;;;;;;;-2.4;78.6;98420;;;;
2023/03/28 02:36:51;;;;;;;26;17.3;;;;;;;-2.4;78.8;98410;;;;
2023/03/28 02:46:51;;;;;;;26;17.3;;;;;;;-2.5;78.9;98410;;;;
2023/03/28 02:57:52;;;;;;;30.8;19.3;;;;;;;-2.5;79.2;98410;;;;
2023/03/28 03:08:51;;;;;;;30.8;19.3;;;;;;;-2.3;79.4;98400;;;;
2023/03/28 03:18:52;;;;;;;30.8;19.3;;;;;;;-2;80;98410;;;;
2023/03/28 03:29:52;;;;;;;42.1;23.9;;;;;;;-1.5;80.1;98410;;;;
2023/03/28 03:40:51;;;;;;;42.1;23.9;;;;;;;-1.1;79.6;98400;;;;
2023/03/28 03:50:51;;;;;;;42.1;23.9;;;;;;;-0.8;79.6;98400;;;;
2023/03/28 04:01:52;;;;;;;47.1;24.9;;;;;;;-0.6;79.6;98400;;;;
2023/03/28 04:12:51;;;;;;;47.1;24.9;;;;;;;-0.5;79.8;98400;;;;
2023/03/28 04:22:53;;;;;;;47.1;24.9;;;;;;;-0.3;80.1;98400;;;;
2023/03/28 04:33:52;;;;;;;42.5;26.5;;;;;;;-0.2;80.9;98400;;;;
2023/03/28 04:43:51;;;;;;;42.5;26.5;;;;;;;0;80.8;98400;;;;
2023/03/28 04:53:51;;;;;;;35.9;22.1;;;;;;;0.1;80.8;98400;;;;
2023/03/28 05:03:51;;;;;;;35.9;22.1;;;;;;;0.3;81.1;98400;;;;
2023/03/28 05:13:52;;;;;;;35.9;22.1;;;;;;;0.4;81.2;98410;;;;
2023/03/28 05:24:51;;;;;;;29.7;18.1;;;;;;;0.5;81.2;98410;;;;
2023/03/28 05:35:52;;;;;;;29.7;18.1;;;;;;;0.7;80.9;98390;;;;
2023/03/28 05:45:51;;;;;;;29.7;18.1;;;;;;;0.8;80.6;98400;;;;
2023/03/28 05:55:52;;;;;;;26.5;15.7;;;;;;;0.3;86;98410;;;;
2023/03/28 06:06:52;;;;;;;26.5;15.7;;;;;;;0.4;86.8;98410;;;;
2023/03/28 06:16:51;;;;;;;26.5;15.7;;;;;;;0.3;87.1;98420;;;;
2023/03/28 06:26:52;;;;;;;30.4;16.5;;;;;;;0.5;87.1;98430;;;;
2023/03/28 06:37:52;;;;;;;30.4;16.5;;;;;;;0.6;86.9;98440;;;;
2023/03/28 06:48:52;;;;;;;30.4;16.5;;;;;;;0.9;84.6;98450;;;;
2023/03/28 06:58:51;;;;;;;32.5;20.1;;;;;;;1.4;80.9;98460;;;;
2023/03/28 07:08:52;;;;;;;32.5;20.1;;;;;;;1.6;80.1;98460;;;;
2023/03/28 07:18:52;;;;;;;32.5;20.1;;;;;;;1.7;79.6;98470;;;;
2023/03/28 07:28:52;;;;;;;23;11.3;;;;;;;2.2;78.4;98480;;;;
2023/03/28 07:39:53;;;;;;;23;11.3;;;;;;;1.6;81.2;98490;;;;
2023/03/28 07:49:52;;;;;;;23;11.3;;;;;;;1.9;83.2;98510;;;;
2023/03/28 08:00:52;;;;;;;16.2;9.8;;;;;;;1.8;80.7;98500;;;;
2023/03/28 08:10:52;;;;;;;16.2;9.8;;;;;;;1.5;81.2;98530;;;;
2023/03/28 08:20:52;;;;;;;16.2;9.8;;;;;;;1.5;80.9;98550;;;;
2023/03/28 08:31:52;;;;;;;10.5;5.9;;;;;;;2.1;79.4;98560;;;;
2023/03/28 08:41:52;;;;;;;10.5;5.9;;;;;;;2.3;75.5;98570;;;;
2023/03/28 08:52:52;;;;;;;10.5;5.9;;;;;;;2.7;72;98600;;;;
2023/03/28 09:02:52;;;;;;;11.3;5;;;;;;;1.9;73.9;98610;;;;
2023/03/28 09:12:52;;;;;;;11.3;5;;;;;;;2.1;73.4;98620;;;;
2023/03/28 09:23:52;;;;;;;6.2;2.8;;;;;;;1.9;72;98640;;;;
2023/03/28 09:34:52;;;;;;;6.2;2.8;;;;;;;1.9;74.3;98670;;;;
2023/03/28 09:44:52;;;;;;;6.2;2.8;;;;;;;2.4;68.8;98670;;;;
2023/03/28 09:54:52;;;;;;;4.2;1.9;;;;;;;2.7;67.3;98680;;;;
2023/03/28 10:05:52;;;;;;;4.2;1.9;;;;;;;2.8;65;98690;;;;
2023/03/28 10:15:52;;;;;;;4.2;1.9;;;;;;;1.8;67.7;98720;;;;
2023/03/28 10:26:52;;;;;;;3.5;1.8;;;;;;;1.9;72;98710;;;;
2023/03/28 10:36:52;;;;;;;3.5;1.8;;;;;;;2.7;65.9;98720;;;;
2023/03/28 10:47:52;;;;;;;3.5;1.8;;;;;;;3.5;57.4;98700;;;;
2023/03/28 10:57:52;;;;;;;3.2;1.8;;;;;;;3;55.7;98730;;;;
2023/03/28 11:07:52;;;;;;;3.2;1.8;;;;;;;3.5;62.7;98740;;;;
2023/03/28 11:18:52;;;;;;;3.2;1.8;;;;;;;3;59.7;98760;;;;
2023/03/28 11:29:52;;;;;;;4.4;2.1;;;;;;;3.4;55.6;98750;;;;
2023/03/28 11:39:52;;;;;;;4.4;2.1;;;;;;;3.6;52.9;98730;;;;
2023/03/28 11:49:52;;;;;;;4.4;2.1;;;;;;;3.8;53.9;98730;;;;
2023/03/28 11:59:52;;;;;;;4.4;2.1;;;;;;;4;59.2;98750;;;;
2023/03/28 12:10:52;;;;;;;4.4;2.1;;;;;;;4.8;54.5;98750;;;;
2023/03/28 12:20:54;;;;;;;4.4;2.1;;;;;;;4;56.1;98750;;;;
2023/03/28 12:31:52;;;;;;;3.3;2.3;;;;;;;4.3;57.8;98750;;;;
2023/03/28 12:42:52;;;;;;;3.3;2.3;;;;;;;4.4;54.4;98760;;;;
2023/03/28 12:52:52;;;;;;;3.5;1.9;;;;;;;4.6;56.6;98750;;;;
2023/03/28 13:02:52;;;;;;;3.5;1.9;;;;;;;3.2;62.7;98800;;;;
2023/03/28 13:13:52;;;;;;;3.5;1.9;;;;;;;0.9;80.9;98850;;;;
2023/03/28 13:23:52;;;;;;;4.3;2.5;;;;;;;0.4;85.2;98850;;;;
2023/03/28 13:33:52;;;;;;;4.3;2.5;;;;;;;0.5;84.6;98840;;;;
2023/03/28 13:43:52;;;;;;;4.3;2.5;;;;;;;1.3;84.9;98840;;;;
2023/03/28 13:53:52;;;;;;;6.8;4;;;;;;;2.3;78.1;98850;;;;
2023/03/28 14:03:52;;;;;;;6.8;4;;;;;;;0.6;85.8;98900;;;;
2023/03/28 14:14:52;;;;;;;6.8;4;;;;;;;0.4;83.2;98910;;;;
2023/03/28 14:24:52;;;;;;;2.9;1.5;;;;;;;0.7;79.1;98910;;;;
2023/03/28 14:34:52;;;;;;;2.9;1.5;;;;;;;1;75.8;98900;;;;
2023/03/28 14:45:53;;;;;;;2.9;1.5;;;;;;;1.2;71.5;98900;;;;
2023/03/28 14:55:53;;;;;;;3.4;1.7;;;;;;;1.9;69;98910;;;;
2023/03/28 15:05:53;;;;;;;3.4;1.7;;;;;;;1.9;67.3;98910;;;;
2023/03/28 15:15:52;;;;;;;3.4;1.7;;;;;;;2.2;66.4;98900;;;;
2023/03/28 15:25:52;;;;;;;6.8;2.6;;;;;;;2;66.4;98920;;;;
2023/03/28 15:35:54;;;;;;;6.8;2.6;;;;;;;1.5;65.7;98930;;;;
2023/03/28 15:45:52;;;;;;;6.8;2.6;;;;;;;1.4;69.4;98950;;;;
2023/03/28 15:55:52;;;;;;;3;1.7;;;;;;;2;70.5;98960;;;;
2023/03/28 16:06:52;;;;;;;3;1.7;;;;;;;2.8;68.4;98970;;;;
2023/03/28 16:16:52;;;;;;;3;1.7;;;;;;;1.6;71.8;98980;;;;
2023/03/28 16:26:52;;;;;;;6.1;2.7;;;;;;;1;72.8;99010;;;;
2023/03/28 16:37:52;;;;;;;6.1;2.7;;;;;;;0.2;82.3;99020;;;;
2023/03/28 16:47:52;;;;;;;6.1;2.7;;;;;;;-0.1;81.9;99030;;;;
2023/03/28 16:57:52;;;;;;;6.5;4;;;;;;;-0.3;81.2;99050;;;;
2023/03/28 17:07:52;;;;;;;6.5;4;;;;;;;-0.3;80.2;99060;;;;
2023/03/28 17:17:52;;;;;;;6.5;4;;;;;;;-0.2;80;99100;;;;
2023/03/28 17:27:52;;;;;;;8;5.4;;;;;;;-0.3;82.7;99120;;;;
2023/03/28 17:38:52;;;;;;;8;5.4;;;;;;;-0.3;84.5;99120;;;;
2023/03/28 17:48:52;;;;;;;8;5.4;;;;;;;-0.3;84.9;99150;;;;
2023/03/28 17:59:53;;;;;;;16.8;9.1;;;;;;;-0.4;86.4;99180;;;;
2023/03/28 18:09:53;;;;;;;16.8;9.1;;;;;;;-0.4;86.9;99200;;;;
2023/03/28 18:19:52;;;;;;;16.8;9.1;;;;;;;-0.4;86.2;99220;;;;
2023/03/28 18:30:52;;;;;;;12.1;7.7;;;;;;;-0.3;85.6;99230;;;;
2023/03/28 18:40:52;;;;;;;12.1;7.7;;;;;;;-0.2;84.6;99250;;;;
2023/03/28 18:50:53;;;;;;;12.1;7.7;;;;;;;-0.3;81.2;99260;;;;
2023/03/28 19:01:52;;;;;;;10.7;6;;;;;;;-0.4;79.7;99270;;;;
2023/03/28 19:11:53;;;;;;;10.7;6;;;;;;;-0.4;76.8;99270;;;;
2023/03/28 19:21:53;;;;;;;8.2;3.8;;;;;;;-0.4;74.6;99280;;;;
2023/03/28 19:32:52;;;;;;;8.2;3.8;;;;;;;-0.4;71.9;99290;;;;
2023/03/28 19:42:52;;;;;;;8.2;3.8;;;;;;;-0.4;73.3;99290;;;;
2023/03/28 19:53:52;;;;;;;7.2;3.8;;;;;;;-0.4;72.6;99300;;;;
2023/03/28 20:03:52;;;;;;;7.2;3.8;;;;;;;-0.4;74.3;99300;;;;
2023/03/28 20:14:52;;;;;;;7.2;3.8;;;;;;;-0.4;75.6;99290;;;;
2023/03/28 20:25:52;;;;;;;13.2;6.8;;;;;;;-0.3;75.3;99290;;;;
2023/03/28 20:35:52;;;;;;;13.2;6.8;;;;;;;-0.3;74.8;99290;;;;
2023/03/28 20:45:53;;;;;;;13.2;6.8;;;;;;;-0.3;74.1;99290;;;;
2023/03/28 20:55:52;;;;;;;11.5;7.2;;;;;;;-0.3;73;99300;;;;
2023/03/28 21:06:56;;;;;;;11.5;7.2;;;;;;;-0.2;70.8;99300;;;;
2023/03/28 21:16:53;;;;;;;11.5;7.2;;;;;;;-0.2;70;99300;;;;
2023/03/28 21:27:53;;;;;;;14;6.5;;;;;;;-0.3;66.9;99310;;;;
2023/03/28 21:38:52;;;;;;;14;6.5;;;;;;;-0.4;66;99320;;;;
2023/03/28 21:48:52;;;;;;;14;6.5;;;;;;;-0.4;64.9;99330;;;;
2023/03/28 21:59:52;;;;;;;9.1;4.4;;;;;;;-0.4;64;99320;;;;
2023/03/28 22:09:53;;;;;;;9.1;4.4;;;;;;;-0.6;64.7;99330;;;;
2023/03/28 22:20:53;;;;;;;7.8;3.8;;;;;;;-0.9;64.8;99340;;;;
2023/03/28 22:30:53;;;;;;;7.8;3.8;;;;;;;-1;65.8;99340;;;;
2023/03/28 22:41:53;;;;;;;7.8;3.8;;;;;;;-1.2;65.8;99340;;;;
2023/03/28 22:51:54;;;;;;;9.4;4.1;;;;;;;-1.3;65.3;99340;;;;
2023/03/28 23:01:53;;;;;;;9.4;4.1;;;;;;;-1.4;65.2;99340;;;;
2023/03/28 23:11:53;;;;;;;9.4;4.1;;;;;;;-1.5;66.6;99350;;;;
2023/03/28 23:22:53;;;;;;;13.6;6.9;;;;;;;-1.8;67.2;99350;;;;
2023/03/28 23:32:53;;;;;;;13.6;6.9;;;;;;;-1.9;68.3;99350;;;;
2023/03/28 23:43:53;;;;;;;13.6;6.9;;;;;;;-2;68.5;99360;;;;
2023/03/28 23:53:53;;;;;;;14.3;6.9;;;;;;;-2.1;69.3;99370;;;;
